createdAt,value
2017-11-29T00:02:04.522Z,79.03
2017-11-29T00:04:35.841Z,79.17
2017-11-29T00:07:07.536Z,79.10
2017-11-29T00:09:38.814Z,79.47
2017-11-29T00:12:10.902Z,79.62
2017-11-29T00:14:42.242Z,79.70
2017-11-29T00:17:13.755Z,79.81
2017-11-29T00:19:45.373Z,80.07
2017-11-29T00:22:17.093Z,80.44
2017-11-29T00:24:49.740Z,80.72
2017-11-29T00:27:21.451Z,80.78
2017-11-29T00:29:52.956Z,81.15
2017-11-29T00:32:24.356Z,81.30
2017-11-29T00:34:55.962Z,81.45
2017-11-29T00:37:27.327Z,81.64
2017-11-29T00:39:58.771Z,82.27
2017-11-29T00:42:30.441Z,82.34
2017-11-29T00:45:02.632Z,82.46
2017-11-29T00:47:34.419Z,82.48
2017-11-29T00:50:08.664Z,82.46
2017-11-29T00:52:39.940Z,82.59
2017-11-29T00:55:11.593Z,82.66
2017-11-29T00:57:42.987Z,82.68
2017-11-29T01:00:14.827Z,82.85
2017-11-29T01:02:46.290Z,82.98
2017-11-29T01:05:17.701Z,82.83
2017-11-29T01:07:49.378Z,82.94
2017-11-29T01:10:20.721Z,83.06
2017-11-29T01:12:52.083Z,82.94
2017-11-29T01:15:25.917Z,83.10
2017-11-29T01:17:57.260Z,83.23
2017-11-29T01:20:28.928Z,83.24
2017-11-29T01:23:00.231Z,83.15
2017-11-29T01:25:31.644Z,82.85
2017-11-29T01:28:04.407Z,82.76
2017-11-29T01:30:35.855Z,83.00
2017-11-29T01:33:07.515Z,82.89
2017-11-29T01:35:38.846Z,82.61
2017-11-29T01:38:10.625Z,81.84
2017-11-29T01:40:42.244Z,82.11
2017-11-29T01:43:15.006Z,82.01
2017-11-29T01:45:46.569Z,81.68
2017-11-29T01:48:18.378Z,81.22
2017-11-29T01:50:49.705Z,81.37
2017-11-29T01:53:21.027Z,81.32
2017-11-29T01:55:52.693Z,81.56
2017-11-29T01:58:23.992Z,81.03
2017-11-29T02:00:55.439Z,81.29
2017-11-29T02:03:27.076Z,81.32
2017-11-29T02:06:03.339Z,81.24
2017-11-29T02:08:35.057Z,81.58
2017-11-29T02:11:06.536Z,81.49
2017-11-29T02:13:37.874Z,81.46
2017-11-29T02:16:09.510Z,81.34
2017-11-29T02:18:41.094Z,81.34
2017-11-29T02:21:14.526Z,81.35
2017-11-29T02:23:45.937Z,81.56
2017-11-29T02:26:17.585Z,81.48
2017-11-29T02:28:49.279Z,81.04
2017-11-29T02:31:21.608Z,81.02
2017-11-29T02:33:53.324Z,81.18
2017-11-29T02:36:24.954Z,81.37
2017-11-29T02:38:56.278Z,81.31
2017-11-29T02:43:34.131Z,81.08
2017-11-29T02:46:06.528Z,81.41
2017-11-29T02:48:38.177Z,81.67
2017-11-29T02:51:09.556Z,82.00
2017-11-29T02:53:41.237Z,81.72
2017-11-29T02:56:13.025Z,81.90
2017-11-29T02:58:44.538Z,81.70
2017-11-29T03:01:16.245Z,81.23
2017-11-29T03:03:47.648Z,81.03
2017-11-29T03:06:20.013Z,81.12
2017-11-29T03:08:51.707Z,80.96
2017-11-29T03:11:23.814Z,81.02
2017-11-29T03:13:55.332Z,81.07
2017-11-29T03:16:26.925Z,81.43
2017-11-29T03:18:58.211Z,81.46
2017-11-29T03:21:29.518Z,81.54
2017-11-29T03:24:01.329Z,81.50
2017-11-29T03:26:32.689Z,81.59
2017-11-29T03:29:04.423Z,81.63
2017-11-29T03:31:35.993Z,81.63
2017-11-29T03:34:08.246Z,82.00
2017-11-29T03:36:40.919Z,82.05
2017-11-29T03:39:13.352Z,82.00
2017-11-29T03:41:44.637Z,82.15
2017-11-29T03:44:17.205Z,82.17
2017-11-29T03:46:48.484Z,82.05
2017-11-29T03:49:20.300Z,82.24
2017-11-29T03:51:51.629Z,81.94
2017-11-29T03:54:22.949Z,82.01
2017-11-29T03:56:54.219Z,82.02
2017-11-29T03:59:25.512Z,82.27
2017-11-29T04:01:56.841Z,82.06
2017-11-29T04:04:28.588Z,81.91
2017-11-29T04:06:59.946Z,81.58
2017-11-29T04:09:31.598Z,81.81
2017-11-29T04:12:04.618Z,81.75
2017-11-29T04:14:35.951Z,81.67
2017-11-29T04:17:07.750Z,81.03
2017-11-29T04:19:39.114Z,81.08
2017-11-29T04:22:10.414Z,81.63
2017-11-29T04:24:42.030Z,81.54
2017-11-29T04:27:13.404Z,81.74
2017-11-29T04:29:45.183Z,81.86
2017-11-29T04:32:17.501Z,82.07
2017-11-29T04:34:48.823Z,81.94
2017-11-29T04:37:20.486Z,82.06
2017-11-29T04:39:51.989Z,82.08
2017-11-29T04:42:23.301Z,82.19
2017-11-29T04:44:54.909Z,82.07
2017-11-29T04:47:26.207Z,82.19
2017-11-29T04:49:57.612Z,82.58
2017-11-29T04:52:29.412Z,82.65
2017-11-29T04:55:00.782Z,82.83
2017-11-29T04:57:32.204Z,82.77
2017-11-29T05:00:04.925Z,82.97
2017-11-29T05:02:36.304Z,82.79
2017-11-29T05:05:09.333Z,82.87
2017-11-29T05:07:40.790Z,83.25
2017-11-29T05:10:12.150Z,83.67
2017-11-29T05:12:43.507Z,83.96
2017-11-29T05:15:14.880Z,83.43
2017-11-29T05:17:46.534Z,83.71
2017-11-29T05:20:18.060Z,83.43
2017-11-29T05:22:49.850Z,83.81
2017-11-29T05:25:21.266Z,84.09
2017-11-29T05:27:52.939Z,83.90
2017-11-29T05:30:24.913Z,83.27
2017-11-29T05:32:56.490Z,83.67
2017-11-29T05:35:27.963Z,84.14
2017-11-29T05:37:59.590Z,84.26
2017-11-29T05:40:31.225Z,84.23
2017-11-29T05:43:03.303Z,84.25
2017-11-29T05:45:36.514Z,84.06
2017-11-29T05:48:09.437Z,84.38
2017-11-29T05:50:41.236Z,84.44
2017-11-29T05:53:14.840Z,84.80
2017-11-29T05:55:46.613Z,84.79
2017-11-29T05:58:17.997Z,84.33
2017-11-29T06:00:49.423Z,84.47
2017-11-29T06:03:21.169Z,84.83
2017-11-29T06:05:52.593Z,85.03
2017-11-29T06:08:24.214Z,84.77
2017-11-29T06:10:55.605Z,84.97
2017-11-29T06:13:26.979Z,84.61
2017-11-29T06:15:58.991Z,84.82
2017-11-29T06:18:30.456Z,84.73
2017-11-29T06:21:02.370Z,84.77
2017-11-29T06:23:34.166Z,85.07
2017-11-29T06:26:06.761Z,85.05
2017-11-29T06:28:38.220Z,85.05
2017-11-29T06:31:10.400Z,85.23
2017-11-29T06:33:41.813Z,85.33
2017-11-29T06:36:13.554Z,85.19
2017-11-29T06:38:45.177Z,85.31
2017-11-29T06:41:16.483Z,85.51
2017-11-29T06:43:47.930Z,85.33
2017-11-29T06:46:19.585Z,85.45
2017-11-29T06:48:50.995Z,85.19
2017-11-29T06:51:22.421Z,85.24
2017-11-29T06:53:54.150Z,85.10
2017-11-29T06:56:25.650Z,84.93
2017-11-29T06:58:57.005Z,84.87
2017-11-29T07:01:28.705Z,85.03
2017-11-29T07:04:00.127Z,84.77
2017-11-29T07:06:32.913Z,84.81
2017-11-29T07:09:06.059Z,84.90
2017-11-29T07:11:37.363Z,84.68
2017-11-29T07:14:10.298Z,84.46
2017-11-29T07:16:41.615Z,84.61
2017-11-29T07:19:13.991Z,84.42
2017-11-29T07:21:45.639Z,84.75
2017-11-29T07:24:18.317Z,85.03
2017-11-29T07:26:49.634Z,84.47
2017-11-29T07:29:21.158Z,84.57
2017-11-29T07:31:52.533Z,84.48
2017-11-29T07:34:24.118Z,84.46
2017-11-29T07:36:55.628Z,84.32
2017-11-29T07:39:26.960Z,84.34
2017-11-29T07:41:59.497Z,84.53
2017-11-29T07:44:30.844Z,84.61
2017-11-29T07:47:03.932Z,84.42
2017-11-29T07:49:35.282Z,84.57
2017-11-29T07:52:06.755Z,84.40
2017-11-29T07:54:38.389Z,84.51
2017-11-29T07:57:09.780Z,84.64
2017-11-29T07:59:41.355Z,84.79
2017-11-29T08:02:13.228Z,84.57
2017-11-29T08:04:44.569Z,84.29
2017-11-29T08:07:17.887Z,84.37
2017-11-29T08:09:49.315Z,84.18
2017-11-29T08:12:23.962Z,84.07
2017-11-29T08:14:55.292Z,84.16
2017-11-29T08:17:28.117Z,84.05
2017-11-29T08:19:59.845Z,83.85
2017-11-29T08:22:32.108Z,84.00
2017-11-29T08:25:03.900Z,83.71
2017-11-29T08:27:38.216Z,83.21
2017-11-29T08:30:12.053Z,82.85
2017-11-29T08:32:50.187Z,82.42
2017-11-29T08:35:22.021Z,82.32
2017-11-29T08:37:54.397Z,82.77
2017-11-29T08:40:26.280Z,81.53
2017-11-29T08:42:58.141Z,81.41
2017-11-29T08:45:29.681Z,80.47
2017-11-29T08:48:01.144Z,80.99
2017-11-29T08:50:33.545Z,81.19
2017-11-29T08:53:06.788Z,81.45
2017-11-29T08:55:38.422Z,80.64
2017-11-29T08:58:14.444Z,79.69
2017-11-29T09:00:46.123Z,78.59
2017-11-29T09:03:18.710Z,77.22
2017-11-29T09:05:51.966Z,76.01
2017-11-29T09:08:23.740Z,74.77
2017-11-29T09:10:55.732Z,72.65
2017-11-29T09:13:29.225Z,72.88
2017-11-29T09:16:00.690Z,72.99
2017-11-29T09:18:32.463Z,72.98
2017-11-29T09:21:04.215Z,72.47
2017-11-29T09:23:35.944Z,72.25
2017-11-29T09:26:07.797Z,72.68
2017-11-29T09:28:39.193Z,73.84
2017-11-29T09:31:11.341Z,74.35
2017-11-29T09:33:43.038Z,74.24
2017-11-29T09:36:14.492Z,74.26
2017-11-29T09:38:46.163Z,73.56
2017-11-29T09:41:17.845Z,72.82
2017-11-29T09:43:49.302Z,73.47
2017-11-29T09:46:20.762Z,72.08
2017-11-29T09:48:52.473Z,72.13
2017-11-29T09:51:25.298Z,71.10
2017-11-29T09:53:57.178Z,70.17
2017-11-29T09:56:28.570Z,65.51
2017-11-29T09:59:00.050Z,65.42
2017-11-29T10:01:31.753Z,66.00
2017-11-29T10:04:04.726Z,68.19
2017-11-29T10:06:36.478Z,69.23
2017-11-29T10:09:08.742Z,70.62
2017-11-29T10:11:40.703Z,71.02
2017-11-29T10:14:12.438Z,71.61
2017-11-29T10:16:43.923Z,71.22
2017-11-29T10:19:16.132Z,70.36
2017-11-29T10:21:47.929Z,69.57
2017-11-29T10:24:19.863Z,68.46
2017-11-29T10:26:51.259Z,67.58
2017-11-29T10:29:23.081Z,67.13
2017-11-29T10:31:54.514Z,62.90
2017-11-29T10:34:30.268Z,58.33
2017-11-29T10:37:03.721Z,58.49
2017-11-29T10:39:35.432Z,59.00
2017-11-29T10:42:07.328Z,59.25
2017-11-29T10:44:38.836Z,62.00
2017-11-29T10:47:11.104Z,61.10
2017-11-29T10:49:42.797Z,58.44
2017-11-29T10:52:14.687Z,59.50
2017-11-29T10:54:46.203Z,59.93
2017-11-29T10:57:20.416Z,61.76
2017-11-29T10:59:51.832Z,61.33
2017-11-29T11:02:23.606Z,62.26
2017-11-29T11:04:55.095Z,64.65
2017-11-29T11:07:27.029Z,65.86
2017-11-29T11:09:58.777Z,67.52
2017-11-29T11:12:30.159Z,68.37
2017-11-29T11:15:01.720Z,69.11
2017-11-29T11:17:33.446Z,69.96
2017-11-29T11:20:05.967Z,69.86
2017-11-29T11:22:37.424Z,69.57
2017-11-29T11:25:10.937Z,70.30
2017-11-29T11:27:42.445Z,70.53
2017-11-29T11:30:15.177Z,70.43
2017-11-29T11:32:46.942Z,71.31
2017-11-29T11:35:18.331Z,72.00
2017-11-29T11:37:49.854Z,71.82
2017-11-29T11:40:21.614Z,72.33
2017-11-29T11:42:53.064Z,71.94
2017-11-29T11:48:19.609Z,71.37
2017-11-29T11:50:53.369Z,70.13
2017-11-29T11:53:25.198Z,68.98
2017-11-29T11:55:56.644Z,65.83
2017-11-29T11:58:29.557Z,59.93
2017-11-29T12:01:02.277Z,54.44
2017-11-29T12:03:33.740Z,50.64
2017-11-29T12:06:08.825Z,48.54
2017-11-29T12:08:40.368Z,47.55
2017-11-29T12:11:14.108Z,47.98
2017-11-29T12:13:45.591Z,49.45
2017-11-29T12:16:19.234Z,49.82
2017-11-29T12:18:51.523Z,52.28
2017-11-29T12:21:24.080Z,56.70
2017-11-29T12:23:55.599Z,57.84
2017-11-29T12:26:27.341Z,59.01
2017-11-29T12:28:59.817Z,58.60
2017-11-29T12:31:31.525Z,58.21
2017-11-29T12:34:04.129Z,58.57
2017-11-29T12:36:36.084Z,57.97
2017-11-29T12:39:08.103Z,55.44
2017-11-29T12:41:39.740Z,56.16
2017-11-29T12:44:11.504Z,56.07
2017-11-29T12:46:43.182Z,57.00
2017-11-29T12:51:21.434Z,56.69
2017-11-29T12:53:53.264Z,57.44
2017-11-29T12:56:26.782Z,56.73
2017-11-29T12:58:58.163Z,55.93
2017-11-29T13:01:32.084Z,55.61
2017-11-29T13:04:04.537Z,55.52
2017-11-29T13:06:36.550Z,55.38
2017-11-29T13:09:08.900Z,56.38
2017-11-29T13:11:40.463Z,57.07
2017-11-29T13:14:13.723Z,57.45
2017-11-29T13:16:45.107Z,58.27
2017-11-29T13:19:17.411Z,58.12
2017-11-29T13:21:48.791Z,58.54
2017-11-29T13:24:20.337Z,56.41
2017-11-29T13:26:52.123Z,55.75
2017-11-29T13:29:23.677Z,54.63
2017-11-29T13:31:55.263Z,54.44
2017-11-29T13:34:27.627Z,52.01
2017-11-29T13:36:59.100Z,51.23
2017-11-29T13:39:31.233Z,52.06
2017-11-29T13:42:04.299Z,51.99
2017-11-29T13:44:35.711Z,51.53
2017-11-29T13:47:07.823Z,53.01
2017-11-29T13:49:39.301Z,54.15
2017-11-29T13:52:15.260Z,55.19
2017-11-29T13:54:46.749Z,54.94
2017-11-29T13:57:18.254Z,54.99
2017-11-29T13:59:49.931Z,55.02
2017-11-29T14:02:21.521Z,55.42
2017-11-29T14:04:53.164Z,55.42
2017-11-29T14:07:26.369Z,55.79
2017-11-29T14:09:57.760Z,55.71
2017-11-29T14:12:29.474Z,55.60
2017-11-29T14:15:02.015Z,55.95
2017-11-29T14:17:33.393Z,56.48
2017-11-29T14:20:09.674Z,56.40
2017-11-29T14:22:41.328Z,56.35
2017-11-29T14:25:12.684Z,56.73
2017-11-29T14:27:44.120Z,57.09
2017-11-29T14:30:15.967Z,57.50
2017-11-29T14:32:47.328Z,57.60
2017-11-29T14:35:18.761Z,57.25
2017-11-29T14:37:50.443Z,57.55
2017-11-29T14:40:21.849Z,57.65
2017-11-29T14:42:53.857Z,57.72
2017-11-29T14:45:25.283Z,57.96
2017-11-29T14:47:56.669Z,58.69
2017-11-29T14:50:28.603Z,58.79
2017-11-29T14:53:00.072Z,59.12
2017-11-29T14:55:32.784Z,58.23
2017-11-29T14:58:06.508Z,58.49
2017-11-29T15:00:38.834Z,58.56
2017-11-29T15:03:10.583Z,58.72
2017-11-29T15:05:41.901Z,59.01
2017-11-29T15:08:14.250Z,59.56
2017-11-29T15:10:45.865Z,59.58
2017-11-29T15:13:18.351Z,60.21
2017-11-29T15:15:50.072Z,60.25
2017-11-29T15:18:22.459Z,60.30
2017-11-29T15:20:53.846Z,60.47
2017-11-29T15:23:27.328Z,60.66
2017-11-29T15:25:58.672Z,60.64
2017-11-29T15:28:31.157Z,60.83
2017-11-29T15:31:02.660Z,61.21
2017-11-29T15:33:35.383Z,61.12
2017-11-29T15:36:07.208Z,61.38
2017-11-29T15:38:38.560Z,61.77
2017-11-29T15:41:11.801Z,61.79
2017-11-29T15:43:43.472Z,62.11
2017-11-29T15:46:16.722Z,62.76
2017-11-29T15:48:48.128Z,62.93
2017-11-29T15:51:20.726Z,63.15
2017-11-29T15:53:52.393Z,63.54
2017-11-29T15:56:24.777Z,63.54
2017-11-29T15:58:56.071Z,63.85
2017-11-29T16:01:27.825Z,63.97
2017-11-29T16:03:59.166Z,63.94
2017-11-29T16:06:30.486Z,64.08
2017-11-29T16:09:02.008Z,64.28
2017-11-29T16:11:35.289Z,64.39
2017-11-29T16:14:07.110Z,64.63
2017-11-29T16:16:38.541Z,65.00
2017-11-29T16:19:11.786Z,64.97
2017-11-29T16:21:43.445Z,65.13
2017-11-29T16:24:17.050Z,65.27
2017-11-29T16:26:48.551Z,65.13
2017-11-29T16:29:19.971Z,65.29
2017-11-29T16:31:51.722Z,65.38
2017-11-29T16:34:23.126Z,65.24
2017-11-29T16:36:54.807Z,64.86
2017-11-29T16:39:26.158Z,64.80
2017-11-29T16:41:57.472Z,64.68
2017-11-29T16:44:29.376Z,64.80
2017-11-29T16:47:01.593Z,64.43
2017-11-29T16:49:33.093Z,64.19
2017-11-29T16:52:06.899Z,64.11
2017-11-29T16:54:38.338Z,64.12
2017-11-29T16:57:10.150Z,64.17
2017-11-29T16:59:41.484Z,64.26
2017-11-29T17:02:12.815Z,63.95
2017-11-29T17:04:44.128Z,63.80
2017-11-29T17:07:15.500Z,63.76
2017-11-29T17:09:47.127Z,63.89
2017-11-29T17:12:23.141Z,63.90
2017-11-29T17:14:59.535Z,63.72
2017-11-29T17:17:31.044Z,63.77
2017-11-29T17:20:05.436Z,63.76
2017-11-29T17:22:37.092Z,63.78
2017-11-29T17:25:08.613Z,63.98
2017-11-29T17:27:40.221Z,64.15
2017-11-29T17:30:13.712Z,64.25
2017-11-29T17:32:45.151Z,64.35
2017-11-29T17:35:16.488Z,64.52
2017-11-29T17:37:47.903Z,64.66
2017-11-29T17:40:19.993Z,64.55
2017-11-29T17:42:51.468Z,64.90
2017-11-29T17:45:23.508Z,65.05
2017-11-29T17:47:54.987Z,65.21
2017-11-29T17:50:26.689Z,65.60
2017-11-29T17:52:58.573Z,66.07
2017-11-29T17:55:31.077Z,66.00
2017-11-29T17:58:05.362Z,66.24
2017-11-29T18:00:36.780Z,66.31
2017-11-29T18:03:08.470Z,66.37
2017-11-29T18:05:40.274Z,66.48
2017-11-29T18:08:11.606Z,67.01
2017-11-29T18:10:43.298Z,67.07
2017-11-29T18:13:15.024Z,67.34
2017-11-29T18:15:50.528Z,67.38
2017-11-29T18:18:23.398Z,67.62
2017-11-29T18:20:54.846Z,67.59
2017-11-29T18:23:26.550Z,67.73
2017-11-29T18:25:57.939Z,67.84
2017-11-29T18:28:29.980Z,67.97
2017-11-29T18:31:02.062Z,68.34
2017-11-29T18:33:33.508Z,68.89
2017-11-29T18:36:05.588Z,68.84
2017-11-29T18:38:36.964Z,69.17
2017-11-29T18:41:08.634Z,69.15
2017-11-29T18:43:40.482Z,69.44
2017-11-29T18:46:13.007Z,69.38
2017-11-29T18:48:44.744Z,69.16
2017-11-29T18:51:16.600Z,69.57
2017-11-29T18:53:48.209Z,69.54
2017-11-29T18:56:19.926Z,69.60
2017-11-29T18:58:51.308Z,69.45
2017-11-29T19:01:22.851Z,69.41
2017-11-29T19:03:54.514Z,69.54
2017-11-29T19:06:26.569Z,69.92
2017-11-29T19:08:58.110Z,69.89
2017-11-29T19:11:29.816Z,69.90
2017-11-29T19:14:03.342Z,69.81
2017-11-29T19:16:35.009Z,69.89
2017-11-29T19:19:06.884Z,69.64
2017-11-29T19:21:38.305Z,69.93
2017-11-29T19:24:09.942Z,70.33
2017-11-29T19:26:41.404Z,70.45
2017-11-29T19:29:13.073Z,70.59
2017-11-29T19:31:44.778Z,70.67
2017-11-29T19:34:16.129Z,70.49
2017-11-29T19:36:47.825Z,70.38
2017-11-29T19:39:20.176Z,70.58
2017-11-29T19:41:51.883Z,71.03
2017-11-29T19:44:24.479Z,71.07
2017-11-29T19:46:56.509Z,71.04
2017-11-29T19:49:27.897Z,71.20
2017-11-29T19:51:59.265Z,71.51
2017-11-29T19:54:32.386Z,71.46
2017-11-29T19:57:04.682Z,71.51
2017-11-29T19:59:36.406Z,71.89
2017-11-29T20:02:08.069Z,72.33
2017-11-29T20:04:40.341Z,72.31
2017-11-29T20:07:14.039Z,72.57
2017-11-29T20:09:45.606Z,72.96
2017-11-29T20:12:20.420Z,73.45
2017-11-29T20:14:52.205Z,73.87
2017-11-29T20:17:24.230Z,73.92
2017-11-29T20:19:55.947Z,73.81
2017-11-29T20:22:27.653Z,74.44
2017-11-29T20:24:59.117Z,74.84
2017-11-29T20:27:30.789Z,75.01
2017-11-29T20:30:03.767Z,75.37
2017-11-29T20:32:35.388Z,75.40
2017-11-29T20:35:07.327Z,75.31
2017-11-29T20:37:38.964Z,75.25
2017-11-29T20:40:13.515Z,74.78
2017-11-29T20:42:45.294Z,74.73
2017-11-29T20:45:20.093Z,74.69
2017-11-29T20:47:52.007Z,74.68
2017-11-29T20:50:24.001Z,74.86
2017-11-29T20:52:56.945Z,74.99
2017-11-29T20:55:35.138Z,74.90
2017-11-29T20:58:07.888Z,74.89
2017-11-29T21:00:39.800Z,74.96
2017-11-29T21:03:11.173Z,75.07
2017-11-29T21:05:42.610Z,74.93
2017-11-29T21:08:17.193Z,75.07
2017-11-29T21:10:48.814Z,75.57
2017-11-29T21:13:26.512Z,76.04
2017-11-29T21:15:58.994Z,75.76
2017-11-29T21:18:31.232Z,75.96
2017-11-29T21:21:04.205Z,76.53
2017-11-29T21:23:36.650Z,76.51
2017-11-29T21:26:09.105Z,76.73
2017-11-29T21:28:40.524Z,76.70
2017-11-29T21:31:12.192Z,76.98
2017-11-29T21:33:43.665Z,77.04
2017-11-29T21:36:15.946Z,76.87
2017-11-29T21:38:47.717Z,77.20
2017-11-29T21:41:19.130Z,77.00
2017-11-29T21:43:50.656Z,76.64
2017-11-29T21:46:23.104Z,76.77
2017-11-29T21:48:55.599Z,76.81
2017-11-29T21:51:28.181Z,76.88
2017-11-29T21:54:00.703Z,77.08
2017-11-29T21:56:35.527Z,77.15
2017-11-29T21:59:09.498Z,77.14
2017-11-29T22:01:42.599Z,77.11
2017-11-29T22:04:14.352Z,77.07
2017-11-29T22:06:46.608Z,77.23
2017-11-29T22:09:18.194Z,77.34
2017-11-29T22:11:50.372Z,77.36
2017-11-29T22:14:22.347Z,77.21
2017-11-29T22:16:53.766Z,77.35
2017-11-29T22:19:29.213Z,77.53
2017-11-29T22:22:03.998Z,77.48
2017-11-29T22:24:36.077Z,77.33
2017-11-29T22:27:08.102Z,77.71
2017-11-29T22:29:39.759Z,77.77
2017-11-29T22:32:11.130Z,78.15
2017-11-29T22:34:42.514Z,78.25
2017-11-29T22:37:13.955Z,78.78
2017-11-29T22:39:45.549Z,78.82
2017-11-29T22:42:17.196Z,78.19
2017-11-29T22:44:48.522Z,78.47
2017-11-29T22:47:20.298Z,78.94
2017-11-29T22:49:51.927Z,78.87
2017-11-29T22:52:23.239Z,79.10
2017-11-29T22:55:03.411Z,79.27
2017-11-29T22:57:34.862Z,79.45
2017-11-29T23:00:07.963Z,79.19
2017-11-29T23:02:39.283Z,79.81
2017-11-29T23:05:10.750Z,79.70
2017-11-29T23:07:42.042Z,79.52
2017-11-29T23:10:13.369Z,80.09
2017-11-29T23:12:44.979Z,80.58
2017-11-29T23:15:17.653Z,80.49
2017-11-29T23:17:48.992Z,80.60
2017-11-29T23:20:21.717Z,80.79
2017-11-29T23:22:53.212Z,80.86
2017-11-29T23:25:24.970Z,80.93
2017-11-29T23:27:56.301Z,80.56
2017-11-29T23:30:27.685Z,80.41
2017-11-29T23:32:59.539Z,80.22
2017-11-29T23:35:31.036Z,80.03
2017-11-29T23:38:03.503Z,79.80
2017-11-29T23:40:35.106Z,79.89
2017-11-29T23:43:07.635Z,79.90
2017-11-29T23:45:39.051Z,79.98
2017-11-29T23:48:10.888Z,80.22
2017-11-29T23:50:43.468Z,80.29
2017-11-29T23:53:14.855Z,80.57
2017-11-29T23:55:46.527Z,80.78
2017-11-29T23:58:17.959Z,81.10
